sensor_id;sensor_type;location;lat;lon;timestamp;pressure;altitude;pressure_sealevel;temperature;humidity
29385;BME280;16367;48.736;9.218;2023-03-18T00:01:26;-23561.94;;;12.46;52.43
29385;BME280;16367;48.736;9.218;2023-03-18T00:03:29;-23559.56;;;12.39;52.63
29385;BME280;16367;48.736;9.218;2023-03-18T00:05:31;-23557.50;;;12.32;52.84
29385;BME280;16367;48.736;9.218;2023-03-18T00:07:35;-23553.69;;;12.20;53.74
29385;BME280;16367;48.736;9.218;2023-03-18T00:09:39;-23554.19;;;12.22;53.47
29385;BME280;16367;48.736;9.218;2023-03-18T00:11:42;-23555.91;;;12.27;52.99
29385;BME280;16367;48.736;9.218;2023-03-18T00:13:46;-23553.22;;;12.19;53.33
29385;BME280;16367;48.736;9.218;2023-03-18T00:15:49;-23551.16;;;12.12;53.69
29385;BME280;16367;48.736;9.218;2023-03-18T00:17:53;-23551.81;;;12.14;53.86
29385;BME280;16367;48.736;9.218;2023-03-18T00:19:56;-23553.06;;;12.18;53.93
29385;BME280;16367;48.736;9.218;2023-03-18T00:22:06;-23554.81;;;12.24;53.71
29385;BME280;16367;48.736;9.218;2023-03-18T00:24:10;-23555.91;;;12.27;53.61
29385;BME280;16367;48.736;9.218;2023-03-18T00:26:15;-23552.91;;;12.18;54.04
29385;BME280;16367;48.736;9.218;2023-03-18T00:28:18;-23551.97;;;12.15;54.46
29385;BME280;16367;48.736;9.218;2023-03-18T00:30:20;-23550.53;;;12.10;54.80
29385;BME280;16367;48.736;9.218;2023-03-18T00:32:25;-23548.31;;;12.03;54.90
29385;BME280;16367;48.736;9.218;2023-03-18T00:34:28;-23545.31;;;11.93;55.05
29385;BME280;16367;48.736;9.218;2023-03-18T00:36:31;-23544.22;;;11.90;55.58
29385;BME280;16367;48.736;9.218;2023-03-18T00:38:34;-23542.63;;;11.85;55.48
29385;BME280;16367;48.736;9.218;2023-03-18T00:40:37;-23541.03;;;11.80;55.63
29385;BME280;16367;48.736;9.218;2023-03-18T00:42:55;-23538.50;;;11.72;56.18
29385;BME280;16367;48.736;9.218;2023-03-18T00:45:09;-23538.19;;;11.71;56.32
29385;BME280;16367;48.736;9.218;2023-03-18T00:47:12;-23540.41;;;11.78;55.67
29385;BME280;16367;48.736;9.218;2023-03-18T00:49:15;-23539.16;;;11.74;55.96
29385;BME280;16367;48.736;9.218;2023-03-18T00:51:20;-23537.72;;;11.69;56.25
29385;BME280;16367;48.736;9.218;2023-03-18T00:53:23;-23539.16;;;11.74;55.95
29385;BME280;16367;48.736;9.218;2023-03-18T00:55:26;-23537.09;;;11.67;55.87
29385;BME280;16367;48.736;9.218;2023-03-18T00:57:29;-23535.34;;;11.62;56.42
29385;BME280;16367;48.736;9.218;2023-03-18T00:59:33;-23536.59;;;11.66;56.03
29385;BME280;16367;48.736;9.218;2023-03-18T01:01:36;-23536.59;;;11.66;56.05
29385;BME280;16367;48.736;9.218;2023-03-18T01:03:40;-23537.56;;;11.69;55.68
29385;BME280;16367;48.736;9.218;2023-03-18T01:05:43;-23538.84;;;11.73;55.57
29385;BME280;16367;48.736;9.218;2023-03-18T01:07:46;-23540.72;;;11.79;55.17
29385;BME280;16367;48.736;9.218;2023-03-18T01:09:49;-23540.56;;;11.78;54.92
29385;BME280;16367;48.736;9.218;2023-03-18T01:11:52;-23540.41;;;11.78;55.26
29385;BME280;16367;48.736;9.218;2023-03-18T01:13:55;-23541.69;;;11.82;55.45
29385;BME280;16367;48.736;9.218;2023-03-18T01:16:01;-23540.25;;;11.77;55.18
29385;BME280;16367;48.736;9.218;2023-03-18T01:18:04;-23539.16;;;11.74;55.41
29385;BME280;16367;48.736;9.218;2023-03-18T01:20:08;-23538.34;;;11.71;55.42
29385;BME280;16367;48.736;9.218;2023-03-18T01:22:11;-23539.16;;;11.74;55.28
29385;BME280;16367;48.736;9.218;2023-03-18T01:24:14;-23542.00;;;11.83;54.68
29385;BME280;16367;48.736;9.218;2023-03-18T01:26:17;-23542.00;;;11.83;54.66
29385;BME280;16367;48.736;9.218;2023-03-18T01:28:20;-23541.53;;;11.81;54.88
29385;BME280;16367;48.736;9.218;2023-03-18T01:30:24;-23540.09;;;11.77;54.68
29385;BME280;16367;48.736;9.218;2023-03-18T01:32:28;-23542.00;;;11.83;54.77
29385;BME280;16367;48.736;9.218;2023-03-18T01:34:31;-23540.56;;;11.78;54.47
29385;BME280;16367;48.736;9.218;2023-03-18T01:36:34;-23538.19;;;11.71;54.80
29385;BME280;16367;48.736;9.218;2023-03-18T01:38:37;-23536.59;;;11.66;54.82
29385;BME280;16367;48.736;9.218;2023-03-18T01:40:41;-23535.81;;;11.63;55.27
29385;BME280;16367;48.736;9.218;2023-03-18T01:42:47;-23533.91;;;11.57;55.09
29385;BME280;16367;48.736;9.218;2023-03-18T01:45:13;-23536.94;;;11.67;54.90
29385;BME280;16367;48.736;9.218;2023-03-18T01:47:18;-23536.59;;;11.66;55.47
29385;BME280;16367;48.736;9.218;2023-03-18T01:49:26;-23535.34;;;11.62;55.41
29385;BME280;16367;48.736;9.218;2023-03-18T01:51:29;-23536.28;;;11.65;54.72
29385;BME280;16367;48.736;9.218;2023-03-18T01:53:35;-23537.25;;;11.68;54.79
29385;BME280;16367;48.736;9.218;2023-03-18T01:55:41;-23532.97;;;11.54;55.36
29385;BME280;16367;48.736;9.218;2023-03-18T01:57:47;-23533.59;;;11.56;55.13
29385;BME280;16367;48.736;9.218;2023-03-18T01:59:52;-23540.09;;;11.77;54.23
29385;BME280;16367;48.736;9.218;2023-03-18T02:01:58;-23540.09;;;11.77;54.17
29385;BME280;16367;48.736;9.218;2023-03-18T02:04:04;-23540.09;;;11.77;54.49
29385;BME280;16367;48.736;9.218;2023-03-18T02:06:09;-23536.94;;;11.67;55.25
29385;BME280;16367;48.736;9.218;2023-03-18T02:08:12;-23538.19;;;11.71;55.18
29385;BME280;16367;48.736;9.218;2023-03-18T02:10:17;-23535.03;;;11.61;54.53
29385;BME280;16367;48.736;9.218;2023-03-18T02:12:22;-23537.25;;;11.68;54.55
29385;BME280;16367;48.736;9.218;2023-03-18T02:14:25;-23539.16;;;11.74;54.15
29385;BME280;16367;48.736;9.218;2023-03-18T02:16:35;-23535.34;;;11.62;54.62
29385;BME280;16367;48.736;9.218;2023-03-18T02:18:44;-23534.72;;;11.60;55.15
29385;BME280;16367;48.736;9.218;2023-03-18T02:21:01;-23529.97;;;11.45;55.53
29385;BME280;16367;48.736;9.218;2023-03-18T02:23:18;-23527.28;;;11.36;56.13
29385;BME280;16367;48.736;9.218;2023-03-18T02:25:32;-23525.53;;;11.31;56.33
29385;BME280;16367;48.736;9.218;2023-03-18T02:27:39;-23522.69;;;11.21;56.40
29385;BME280;16367;48.736;9.218;2023-03-18T02:29:44;-23521.56;;;11.18;56.80
29385;BME280;16367;48.736;9.218;2023-03-18T02:31:48;-23518.41;;;11.08;57.58
29385;BME280;16367;48.736;9.218;2023-03-18T02:33:52;-23519.50;;;11.11;57.51
29385;BME280;16367;48.736;9.218;2023-03-18T02:36:00;-23515.56;;;10.99;57.65
29385;BME280;16367;48.736;9.218;2023-03-18T02:38:03;-23515.41;;;10.98;57.63
29385;BME280;16367;48.736;9.218;2023-03-18T02:40:17;-23514.44;;;10.95;57.94
29385;BME280;16367;48.736;9.218;2023-03-18T02:42:27;-23514.44;;;10.95;57.95
29385;BME280;16367;48.736;9.218;2023-03-18T02:44:33;-23510.50;;;10.83;58.47
29385;BME280;16367;48.736;9.218;2023-03-18T02:46:48;-23514.44;;;10.95;58.13
29385;BME280;16367;48.736;9.218;2023-03-18T02:48:55;-23514.28;;;10.95;57.88
29385;BME280;16367;48.736;9.218;2023-03-18T02:50:58;-23515.25;;;10.98;57.77
29385;BME280;16367;48.736;9.218;2023-03-18T02:53:03;-23512.72;;;10.90;58.14
29385;BME280;16367;48.736;9.218;2023-03-18T02:55:06;-23512.53;;;10.89;58.08
29385;BME280;16367;48.736;9.218;2023-03-18T02:57:09;-23510.97;;;10.84;58.23
29385;BME280;16367;48.736;9.218;2023-03-18T02:59:12;-23510.31;;;10.82;58.66
29385;BME280;16367;48.736;9.218;2023-03-18T03:01:17;-23509.84;;;10.81;58.61
29385;BME280;16367;48.736;9.218;2023-03-18T03:03:21;-23508.75;;;10.77;58.65
29385;BME280;16367;48.736;9.218;2023-03-18T03:05:24;-23507.63;;;10.74;58.79
29385;BME280;16367;48.736;9.218;2023-03-18T03:07:26;-23507.63;;;10.74;59.12
29385;BME280;16367;48.736;9.218;2023-03-18T03:09:29;-23510.00;;;10.81;58.75
29385;BME280;16367;48.736;9.218;2023-03-18T03:11:32;-23511.28;;;10.85;58.56
29385;BME280;16367;48.736;9.218;2023-03-18T03:13:35;-23510.00;;;10.81;58.70
29385;BME280;16367;48.736;9.218;2023-03-18T03:15:39;-23509.38;;;10.79;59.14
29385;BME280;16367;48.736;9.218;2023-03-18T03:17:44;-23510.16;;;10.82;58.57
29385;BME280;16367;48.736;9.218;2023-03-18T03:19:48;-23510.00;;;10.81;58.52
29385;BME280;16367;48.736;9.218;2023-03-18T03:21:51;-23511.28;;;10.85;58.54
29385;BME280;16367;48.736;9.218;2023-03-18T03:23:54;-23509.22;;;10.79;59.32
29385;BME280;16367;48.736;9.218;2023-03-18T03:25:57;-23510.66;;;10.83;58.55
29385;BME280;16367;48.736;9.218;2023-03-18T03:28:00;-23512.53;;;10.89;58.45
29385;BME280;16367;48.736;9.218;2023-03-18T03:30:04;-23509.38;;;10.79;58.83
29385;BME280;16367;48.736;9.218;2023-03-18T03:32:08;-23510.00;;;10.81;58.74
29385;BME280;16367;48.736;9.218;2023-03-18T03:34:12;-23510.31;;;10.82;58.43
29385;BME280;16367;48.736;9.218;2023-03-18T03:36:16;-23511.28;;;10.85;58.16
29385;BME280;16367;48.736;9.218;2023-03-18T03:38:19;-23512.84;;;10.90;58.12
29385;BME280;16367;48.736;9.218;2023-03-18T03:40:24;-23506.69;;;10.71;58.78
29385;BME280;16367;48.736;9.218;2023-03-18T03:42:27;-23506.22;;;10.69;58.92
29385;BME280;16367;48.736;9.218;2023-03-18T03:44:30;-23507.63;;;10.74;58.81
29385;BME280;16367;48.736;9.218;2023-03-18T03:46:33;-23504.31;;;10.63;59.31
29385;BME280;16367;48.736;9.218;2023-03-18T03:48:36;-23502.72;;;10.58;59.63
29385;BME280;16367;48.736;9.218;2023-03-18T03:50:41;-23506.22;;;10.69;59.61
29385;BME280;16367;48.736;9.218;2023-03-18T03:52:43;-23506.53;;;10.70;59.16
29385;BME280;16367;48.736;9.218;2023-03-18T03:54:47;-23509.69;;;10.80;58.89
29385;BME280;16367;48.736;9.218;2023-03-18T03:56:50;-23504.78;;;10.65;59.41
29385;BME280;16367;48.736;9.218;2023-03-18T03:58:53;-23503.03;;;10.59;59.79
29385;BME280;16367;48.736;9.218;2023-03-18T04:00:56;-23505.41;;;10.67;59.50
29385;BME280;16367;48.736;9.218;2023-03-18T04:02:59;-23505.25;;;10.66;59.37
29385;BME280;16367;48.736;9.218;2023-03-18T04:05:02;-23504.94;;;10.65;59.22
29385;BME280;16367;48.736;9.218;2023-03-18T04:07:06;-23506.06;;;10.69;59.20
29385;BME280;16367;48.736;9.218;2023-03-18T04:09:09;-23506.22;;;10.69;59.28
29385;BME280;16367;48.736;9.218;2023-03-18T04:11:12;-23507.78;;;10.74;59.34
29385;BME280;16367;48.736;9.218;2023-03-18T04:13:14;-23503.69;;;10.61;59.46
29385;BME280;16367;48.736;9.218;2023-03-18T04:15:18;-23501.28;;;10.54;59.98
29385;BME280;16367;48.736;9.218;2023-03-18T04:17:22;-23502.88;;;10.59;60.16
29385;BME280;16367;48.736;9.218;2023-03-18T04:19:26;-23500.66;;;10.52;59.99
29385;BME280;16367;48.736;9.218;2023-03-18T04:21:29;-23497.97;;;10.43;60.11
29385;BME280;16367;48.736;9.218;2023-03-18T04:23:33;-23497.19;;;10.40;60.33
29385;BME280;16367;48.736;9.218;2023-03-18T04:25:36;-23500.66;;;10.52;59.95
29385;BME280;16367;48.736;9.218;2023-03-18T04:27:39;-23499.06;;;10.46;60.42
29385;BME280;16367;48.736;9.218;2023-03-18T04:29:42;-23499.41;;;10.47;59.96
29385;BME280;16367;48.736;9.218;2023-03-18T04:31:45;-23499.06;;;10.46;60.12
29385;BME280;16367;48.736;9.218;2023-03-18T04:33:48;-23499.72;;;10.48;59.78
29385;BME280;16367;48.736;9.218;2023-03-18T04:35:50;-23499.25;;;10.47;59.90
29385;BME280;16367;48.736;9.218;2023-03-18T04:37:53;-23497.97;;;10.43;60.04
29385;BME280;16367;48.736;9.218;2023-03-18T04:39:58;-23498.94;;;10.46;59.75
29385;BME280;16367;48.736;9.218;2023-03-18T04:42:01;-23497.66;;;10.42;59.99
29385;BME280;16367;48.736;9.218;2023-03-18T04:44:03;-23498.75;;;10.45;59.97
29385;BME280;16367;48.736;9.218;2023-03-18T04:46:06;-23498.59;;;10.45;60.22
29385;BME280;16367;48.736;9.218;2023-03-18T04:48:09;-23494.16;;;10.31;60.70
29385;BME280;16367;48.736;9.218;2023-03-18T04:50:12;-23495.91;;;10.36;60.58
29385;BME280;16367;48.736;9.218;2023-03-18T04:52:15;-23493.84;;;10.30;60.52
29385;BME280;16367;48.736;9.218;2023-03-18T04:54:18;-23497.03;;;10.40;60.00
29385;BME280;16367;48.736;9.218;2023-03-18T04:56:22;-23495.44;;;10.35;60.27
29385;BME280;16367;48.736;9.218;2023-03-18T04:58:25;-23493.38;;;10.28;60.56
29385;BME280;16367;48.736;9.218;2023-03-18T05:00:27;-23493.53;;;10.29;60.22
29385;BME280;16367;48.736;9.218;2023-03-18T05:02:30;-23499.88;;;10.49;59.50
29385;BME280;16367;48.736;9.218;2023-03-18T05:04:33;-23497.03;;;10.40;59.79
29385;BME280;16367;48.736;9.218;2023-03-18T05:06:45;-23495.28;;;10.34;60.15
29385;BME280;16367;48.736;9.218;2023-03-18T05:08:49;-23493.84;;;10.30;60.47
29385;BME280;16367;48.736;9.218;2023-03-18T05:10:51;-23492.75;;;10.26;60.22
29385;BME280;16367;48.736;9.218;2023-03-18T05:12:55;-23495.13;;;10.34;59.78
29385;BME280;16367;48.736;9.218;2023-03-18T05:14:58;-23495.91;;;10.36;60.05
29385;BME280;16367;48.736;9.218;2023-03-18T05:17:01;-23492.59;;;10.26;60.31
29385;BME280;16367;48.736;9.218;2023-03-18T05:19:04;-23493.53;;;10.29;60.09
29385;BME280;16367;48.736;9.218;2023-03-18T05:21:07;-23492.25;;;10.25;60.37
29385;BME280;16367;48.736;9.218;2023-03-18T05:23:10;-23492.44;;;10.25;60.20
29385;BME280;16367;48.736;9.218;2023-03-18T05:25:13;-23490.38;;;10.19;60.52
29385;BME280;16367;48.736;9.218;2023-03-18T05:27:17;-23483.53;;;9.97;61.02
29385;BME280;16367;48.736;9.218;2023-03-18T05:29:21;-23478.47;;;9.81;61.82
29385;BME280;16367;48.736;9.218;2023-03-18T05:31:25;-23473.72;;;9.66;63.03
29385;BME280;16367;48.736;9.218;2023-03-18T05:33:27;-23470.69;;;9.56;63.33
29385;BME280;16367;48.736;9.218;2023-03-18T05:35:30;-23468.97;;;9.51;63.68
29385;BME280;16367;48.736;9.218;2023-03-18T05:37:34;-23467.06;;;9.45;63.98
29385;BME280;16367;48.736;9.218;2023-03-18T05:39:37;-23465.94;;;9.41;63.98
29385;BME280;16367;48.736;9.218;2023-03-18T05:41:40;-23464.53;;;9.37;64.14
29385;BME280;16367;48.736;9.218;2023-03-18T05:43:42;-23462.78;;;9.31;64.52
29385;BME280;16367;48.736;9.218;2023-03-18T05:45:46;-23460.88;;;9.25;65.31
29385;BME280;16367;48.736;9.218;2023-03-18T05:47:50;-23459.59;;;9.21;65.50
29385;BME280;16367;48.736;9.218;2023-03-18T05:49:53;-23459.75;;;9.22;65.09
29385;BME280;16367;48.736;9.218;2023-03-18T05:51:56;-23457.69;;;9.15;65.98
29385;BME280;16367;48.736;9.218;2023-03-18T05:53:58;-23460.41;;;9.24;65.92
29385;BME280;16367;48.736;9.218;2023-03-18T05:56:01;-23460.56;;;9.24;66.09
29385;BME280;16367;48.736;9.218;2023-03-18T05:58:04;-23460.09;;;9.23;65.86
29385;BME280;16367;48.736;9.218;2023-03-18T06:00:08;-23461.19;;;9.26;65.85
29385;BME280;16367;48.736;9.218;2023-03-18T06:02:12;-23458.50;;;9.18;65.69
29385;BME280;16367;48.736;9.218;2023-03-18T06:04:15;-23455.47;;;9.08;66.35
29385;BME280;16367;48.736;9.218;2023-03-18T06:06:19;-23455.31;;;9.08;66.48
29385;BME280;16367;48.736;9.218;2023-03-18T06:08:22;-23458.66;;;9.18;65.80
29385;BME280;16367;48.736;9.218;2023-03-18T06:10:26;-23454.69;;;9.06;66.96
29385;BME280;16367;48.736;9.218;2023-03-18T06:12:29;-23456.44;;;9.11;66.84
29385;BME280;16367;48.736;9.218;2023-03-18T06:14:32;-23457.69;;;9.15;66.38
29385;BME280;16367;48.736;9.218;2023-03-18T06:16:35;-23456.75;;;9.12;66.02
29385;BME280;16367;48.736;9.218;2023-03-18T06:18:39;-23458.03;;;9.16;66.01
29385;BME280;16367;48.736;9.218;2023-03-18T06:20:42;-23459.44;;;9.21;65.57
29385;BME280;16367;48.736;9.218;2023-03-18T06:22:45;-23459.13;;;9.20;66.22
29385;BME280;16367;48.736;9.218;2023-03-18T06:24:50;-23460.88;;;9.25;65.30
29385;BME280;16367;48.736;9.218;2023-03-18T06:26:53;-23459.91;;;9.22;65.20
29385;BME280;16367;48.736;9.218;2023-03-18T06:28:55;-23460.09;;;9.23;65.31
29385;BME280;16367;48.736;9.218;2023-03-18T06:30:59;-23460.56;;;9.24;65.56
29385;BME280;16367;48.736;9.218;2023-03-18T06:33:03;-23460.88;;;9.25;65.48
29385;BME280;16367;48.736;9.218;2023-03-18T06:35:09;-23460.72;;;9.25;65.39
29385;BME280;16367;48.736;9.218;2023-03-18T06:37:12;-23461.81;;;9.28;65.99
29385;BME280;16367;48.736;9.218;2023-03-18T06:39:15;-23461.34;;;9.27;65.62
29385;BME280;16367;48.736;9.218;2023-03-18T06:41:18;-23460.25;;;9.23;66.52
29385;BME280;16367;48.736;9.218;2023-03-18T06:43:20;-23461.50;;;9.27;66.46
29385;BME280;16367;48.736;9.218;2023-03-18T06:45:23;-23464.03;;;9.35;65.53
29385;BME280;16367;48.736;9.218;2023-03-18T06:47:27;-23464.69;;;9.37;65.33
29385;BME280;16367;48.736;9.218;2023-03-18T06:49:29;-23467.53;;;9.46;65.09
29385;BME280;16367;48.736;9.218;2023-03-18T06:51:34;-23468.16;;;9.48;65.37
29385;BME280;16367;48.736;9.218;2023-03-18T06:53:37;-23470.38;;;9.55;64.94
29385;BME280;16367;48.736;9.218;2023-03-18T06:55:40;-23471.66;;;9.59;64.89
29385;BME280;16367;48.736;9.218;2023-03-18T06:57:43;-23473.56;;;9.65;63.67
29385;BME280;16367;48.736;9.218;2023-03-18T06:59:47;-23473.25;;;9.64;64.64
29385;BME280;16367;48.736;9.218;2023-03-18T07:01:50;-23471.34;;;9.58;64.59
29385;BME280;16367;48.736;9.218;2023-03-18T07:03:52;-23471.50;;;9.59;64.75
29385;BME280;16367;48.736;9.218;2023-03-18T07:05:55;-23473.88;;;9.66;64.14
29385;BME280;16367;48.736;9.218;2023-03-18T07:07:59;-23475.78;;;9.72;64.29
29385;BME280;16367;48.736;9.218;2023-03-18T07:10:04;-23481.31;;;9.90;64.18
29385;BME280;16367;48.736;9.218;2023-03-18T07:12:08;-23482.44;;;9.94;64.27
29385;BME280;16367;48.736;9.218;2023-03-18T07:14:11;-23485.28;;;10.03;63.28
29385;BME280;16367;48.736;9.218;2023-03-18T07:16:14;-23496.38;;;10.38;62.21
29385;BME280;16367;48.736;9.218;2023-03-18T07:18:17;-23510.66;;;10.83;60.56
29385;BME280;16367;48.736;9.218;2023-03-18T07:20:20;-23528.69;;;11.41;59.04
29385;BME280;16367;48.736;9.218;2023-03-18T07:22:23;-23524.91;;;11.29;58.67
29385;BME280;16367;48.736;9.218;2023-03-18T07:24:28;-23537.56;;;11.69;57.98
29385;BME280;16367;48.736;9.218;2023-03-18T07:26:30;-23551.97;;;12.15;56.50
29385;BME280;16367;48.736;9.218;2023-03-18T07:28:33;-23554.50;;;12.23;55.88
29385;BME280;16367;48.736;9.218;2023-03-18T07:30:36;-23578.06;;;12.98;54.87
29385;BME280;16367;48.736;9.218;2023-03-18T07:32:39;-23581.84;;;13.10;53.76
29385;BME280;16367;48.736;9.218;2023-03-18T07:34:42;-23622.91;;;14.41;51.38
29385;BME280;16367;48.736;9.218;2023-03-18T07:36:45;-23618.50;;;14.27;50.83
29385;BME280;16367;48.736;9.218;2023-03-18T07:38:47;-23589.75;;;13.35;51.98
29385;BME280;16367;48.736;9.218;2023-03-18T07:40:51;-23599.53;;;13.66;52.15
29385;BME280;16367;48.736;9.218;2023-03-18T07:42:54;-23583.28;;;13.14;53.35
29385;BME280;16367;48.736;9.218;2023-03-18T07:44:57;-23584.06;;;13.17;52.22
29385;BME280;16367;48.736;9.218;2023-03-18T07:46:59;-23608.38;;;13.94;52.08
29385;BME280;16367;48.736;9.218;2023-03-18T07:49:02;-23590.53;;;13.37;52.06
29385;BME280;16367;48.736;9.218;2023-03-18T07:51:05;-23599.53;;;13.66;51.31
29385;BME280;16367;48.736;9.218;2023-03-18T07:53:08;-23616.59;;;14.20;51.45
29385;BME280;16367;48.736;9.218;2023-03-18T07:55:13;-23605.38;;;13.85;51.41
29385;BME280;16367;48.736;9.218;2023-03-18T07:57:17;-23604.59;;;13.82;52.63
29385;BME280;16367;48.736;9.218;2023-03-18T07:59:20;-23622.28;;;14.39;51.58
29385;BME280;16367;48.736;9.218;2023-03-18T08:01:22;-23621.50;;;14.36;51.94
29385;BME280;16367;48.736;9.218;2023-03-18T08:03:26;-23633.66;;;14.75;51.02
29385;BME280;16367;48.736;9.218;2023-03-18T08:05:29;-23642.00;;;15.02;50.86
29385;BME280;16367;48.736;9.218;2023-03-18T08:07:32;-23643.59;;;15.07;49.95
29385;BME280;16367;48.736;9.218;2023-03-18T08:09:36;-23668.66;;;15.87;48.23
29385;BME280;16367;48.736;9.218;2023-03-18T08:11:38;-23665.19;;;15.76;47.06
29385;BME280;16367;48.736;9.218;2023-03-18T08:13:43;-23679.84;;;16.22;47.46
29385;BME280;16367;48.736;9.218;2023-03-18T08:15:46;-23683.78;;;16.35;47.39
29385;BME280;16367;48.736;9.218;2023-03-18T08:17:48;-23653.22;;;15.37;48.76
29385;BME280;16367;48.736;9.218;2023-03-18T08:19:51;-23642.97;;;15.05;48.79
29385;BME280;16367;48.736;9.218;2023-03-18T08:21:54;-23663.00;;;15.68;48.15
29385;BME280;16367;48.736;9.218;2023-03-18T08:23:57;-23675.28;;;16.08;47.15
29385;BME280;16367;48.736;9.218;2023-03-18T08:26:00;-23679.38;;;16.21;47.20
29385;BME280;16367;48.736;9.218;2023-03-18T08:28:03;-23648.16;;;15.21;48.21
29385;BME280;16367;48.736;9.218;2023-03-18T08:30:10;-23673.41;;;16.02;47.42
29385;BME280;16367;48.736;9.218;2023-03-18T08:32:14;-23662.53;;;15.67;47.53
29385;BME280;16367;48.736;9.218;2023-03-18T08:34:17;-23642.16;;;15.02;48.69
29385;BME280;16367;48.736;9.218;2023-03-18T08:36:20;-23633.34;;;14.74;49.11
29385;BME280;16367;48.736;9.218;2023-03-18T08:38:23;-23650.69;;;15.29;48.57
29385;BME280;16367;48.736;9.218;2023-03-18T08:40:26;-23664.09;;;15.72;47.70
29385;BME280;16367;48.736;9.218;2023-03-18T08:42:28;-23694.19;;;16.68;46.11
29385;BME280;16367;48.736;9.218;2023-03-18T08:44:31;-23717.97;;;17.44;44.47
29385;BME280;16367;48.736;9.218;2023-03-18T08:46:35;-23691.34;;;16.59;45.41
29385;BME280;16367;48.736;9.218;2023-03-18T08:48:38;-23718.75;;;17.47;44.48
29385;BME280;16367;48.736;9.218;2023-03-18T08:50:42;-23781.34;;;19.47;41.08
29385;BME280;16367;48.736;9.218;2023-03-18T08:52:44;-23759.19;;;18.76;40.40
29385;BME280;16367;48.736;9.218;2023-03-18T08:54:47;-23761.84;;;18.85;41.44
29385;BME280;16367;48.736;9.218;2023-03-18T08:56:50;-23742.66;;;18.23;40.61
29385;BME280;16367;48.736;9.218;2023-03-18T08:58:55;-23748.78;;;18.43;41.93
29385;BME280;16367;48.736;9.218;2023-03-18T09:00:58;-23726.00;;;17.70;42.64
29385;BME280;16367;48.736;9.218;2023-03-18T09:03:05;-23735.59;;;18.01;42.32
29385;BME280;16367;48.736;9.218;2023-03-18T09:05:08;-23730.72;;;17.85;43.10
29385;BME280;16367;48.736;9.218;2023-03-18T09:07:11;-23745.03;;;18.31;41.34
29385;BME280;16367;48.736;9.218;2023-03-18T09:09:15;-23717.03;;;17.41;42.44
29385;BME280;16367;48.736;9.218;2023-03-18T09:11:18;-23746.13;;;18.34;41.09
29385;BME280;16367;48.736;9.218;2023-03-18T09:13:21;-23749.91;;;18.46;41.42
29385;BME280;16367;48.736;9.218;2023-03-18T09:15:24;-23730.41;;;17.84;40.83
29385;BME280;16367;48.736;9.218;2023-03-18T09:17:28;-23765.16;;;18.95;39.66
29385;BME280;16367;48.736;9.218;2023-03-18T09:19:50;-23814.59;;;20.54;38.60
29385;BME280;16367;48.736;9.218;2023-03-18T09:21:53;-23797.34;;;19.98;39.59
29385;BME280;16367;48.736;9.218;2023-03-18T09:23:56;-23819.94;;;20.71;37.32
29385;BME280;16367;48.736;9.218;2023-03-18T09:25:59;-23849.88;;;21.67;37.09
29385;BME280;16367;48.736;9.218;2023-03-18T09:28:02;-23799.53;;;20.05;36.74
29385;BME280;16367;48.736;9.218;2023-03-18T09:30:06;-23790.13;;;19.75;38.01
29385;BME280;16367;48.736;9.218;2023-03-18T09:32:09;-23795.94;;;19.94;39.14
29385;BME280;16367;48.736;9.218;2023-03-18T09:34:12;-23837.81;;;21.28;38.24
29385;BME280;16367;48.736;9.218;2023-03-18T09:36:16;-23875.41;;;22.49;35.58
29385;BME280;16367;48.736;9.218;2023-03-18T09:38:20;-23872.59;;;22.40;35.42
29385;BME280;16367;48.736;9.218;2023-03-18T09:40:26;-23889.03;;;22.93;34.28
29385;BME280;16367;48.736;9.218;2023-03-18T09:42:42;-23917.00;;;23.83;33.16
29385;BME280;16367;48.736;9.218;2023-03-18T09:44:53;-23885.41;;;22.81;34.19
29385;BME280;16367;48.736;9.218;2023-03-18T09:47:05;-23849.09;;;21.65;36.61
29385;BME280;16367;48.736;9.218;2023-03-18T09:49:34;-23850.34;;;21.69;36.95
29385;BME280;16367;48.736;9.218;2023-03-18T09:51:49;-23891.06;;;22.99;35.18
29385;BME280;16367;48.736;9.218;2023-03-18T09:53:58;-23917.31;;;23.84;33.36
29385;BME280;16367;48.736;9.218;2023-03-18T09:56:06;-23847.84;;;21.61;35.63
29385;BME280;16367;48.736;9.218;2023-03-18T09:58:19;-23887.63;;;22.88;34.51
29385;BME280;16367;48.736;9.218;2023-03-18T10:00:26;-23810.84;;;20.42;37.94
29385;BME280;16367;48.736;9.218;2023-03-18T10:02:34;-23817.75;;;20.64;37.77
29385;BME280;16367;48.736;9.218;2023-03-18T10:04:41;-23895.13;;;23.13;34.92
29385;BME280;16367;48.736;9.218;2023-03-18T10:06:48;-23904.50;;;23.43;34.65
29385;BME280;16367;48.736;9.218;2023-03-18T10:08:58;-23804.25;;;20.21;38.29
29385;BME280;16367;48.736;9.218;2023-03-18T10:11:05;-23826.69;;;20.93;36.71
29385;BME280;16367;48.736;9.218;2023-03-18T10:13:14;-23840.63;;;21.37;37.16
29385;BME280;16367;48.736;9.218;2023-03-18T10:15:21;-23860.38;;;22.01;36.11
29385;BME280;16367;48.736;9.218;2023-03-18T10:17:29;-23844.41;;;21.49;36.77
29385;BME280;16367;48.736;9.218;2023-03-18T10:19:34;-23819.47;;;20.69;37.19
29385;BME280;16367;48.736;9.218;2023-03-18T10:21:42;-23871.97;;;22.38;35.04
29385;BME280;16367;48.736;9.218;2023-03-18T10:23:54;-23878.22;;;22.58;36.12
29385;BME280;16367;48.736;9.218;2023-03-18T10:26:04;-23838.91;;;21.32;37.37
29385;BME280;16367;48.736;9.218;2023-03-18T10:28:31;-23833.91;;;21.16;37.47
29385;BME280;16367;48.736;9.218;2023-03-18T10:30:53;-23824.16;;;20.85;36.71
29385;BME280;16367;48.736;9.218;2023-03-18T10:33:04;-23769.69;;;19.10;40.66
29385;BME280;16367;48.736;9.218;2023-03-18T10:35:18;-23791.84;;;19.81;40.71
29385;BME280;16367;48.736;9.218;2023-03-18T10:37:37;-23793.88;;;19.87;38.16
29385;BME280;16367;48.736;9.218;2023-03-18T10:39:45;-23801.56;;;20.12;38.94
29385;BME280;16367;48.736;9.218;2023-03-18T10:41:51;-23803.31;;;20.18;39.36
29385;BME280;16367;48.736;9.218;2023-03-18T10:43:55;-23833.91;;;21.16;37.69
29385;BME280;16367;48.736;9.218;2023-03-18T10:46:00;-23835.94;;;21.22;36.89
29385;BME280;16367;48.736;9.218;2023-03-18T10:48:11;-23781.00;;;19.46;37.37
29385;BME280;16367;48.736;9.218;2023-03-18T10:50:20;-23783.53;;;19.54;38.05
29385;BME280;16367;48.736;9.218;2023-03-18T10:52:33;-23808.97;;;20.36;36.43
29385;BME280;16367;48.736;9.218;2023-03-18T10:54:39;-23757.75;;;18.72;38.51